Time;durP1;ratioP1;P1;durP2;ratioP2;P2;SDS_P1;SDS_P2;PMS_P1;PMS_P2;Temp;Humidity;BMP_temperature;BMP_pressure;BME280_temperature;BME280_humidity;BME280_pressure;Samples;Min_cycle;Max_cycle;Signal;HPM_P1;HPM_P2
2024/04/04 00:02:23;;;;;;;8.60;6.50;;;13.70;99.90;;;;;;5013104;28;20465;-73
2024/04/04 00:04:59;;;;;;;5.18;4.57;;;13.70;99.90;;;;;;5012632;28;21006;-74
2024/04/04 00:07:25;;;;;;;3.00;2.65;;;13.70;99.90;;;;;;5014679;28;20231;-73
2024/04/04 00:09:52;;;;;;;2.53;2.07;;;13.70;99.90;;;;;;5016758;28;20222;-74
2024/04/04 00:12:19;;;;;;;3.05;2.28;;;13.70;99.90;;;;;;4997216;28;20469;-75
2024/04/04 00:14:46;;;;;;;4.00;3.07;;;13.70;99.90;;;;;;4994146;28;20230;-74
2024/04/04 00:17:14;;;;;;;2.00;1.80;;;13.70;99.90;;;;;;4979776;28;20470;-73
2024/04/04 00:19:41;;;;;;;8.10;6.45;;;13.70;99.90;;;;;;4995800;28;20477;-74
2024/04/04 00:22:07;;;;;;;3.65;3.35;;;13.70;99.90;;;;;;4994865;28;20218;-74
2024/04/04 00:24:34;;;;;;;4.27;3.87;;;13.70;99.90;;;;;;4995009;28;20226;-74
2024/04/04 00:27:00;;;;;;;20.08;13.88;;;13.70;99.90;;;;;;4993260;28;20474;-73
2024/04/04 00:29:27;;;;;;;38.87;27.70;;;13.60;99.90;;;;;;4994367;28;20595;-73
2024/04/04 00:31:52;;;;;;;7.25;6.55;;;13.60;99.90;;;;;;4994570;28;20484;-73
2024/04/04 00:34:24;;;;;;;3.93;3.57;;;13.60;99.90;;;;;;4994757;28;20586;-74
2024/04/04 00:36:50;;;;;;;14.90;13.30;;;13.70;99.90;;;;;;4993769;28;20480;-73
2024/04/04 00:39:17;;;;;;;5.00;4.23;;;13.60;99.90;;;;;;4994983;28;20469;-73
2024/04/04 00:41:42;;;;;;;3.05;2.75;;;13.60;99.90;;;;;;4995852;28;20476;-73
2024/04/04 00:44:09;;;;;;;3.03;2.83;;;13.60;99.90;;;;;;4976693;28;20662;-73
2024/04/04 00:46:36;;;;;;;10.25;8.75;;;13.50;99.90;;;;;;4984456;28;20482;-73
2024/04/04 00:49:03;;;;;;;7.82;5.40;;;13.50;99.90;;;;;;4994856;28;20310;-73
2024/04/04 00:51:30;;;;;;;13.82;10.38;;;13.60;99.90;;;;;;4994694;28;20241;-73
2024/04/04 00:53:57;;;;;;;8.20;6.73;;;13.50;99.90;;;;;;4994750;28;20231;-73
2024/04/04 00:56:24;;;;;;;3.67;2.77;;;13.60;99.90;;;;;;4987588;28;20528;-73
2024/04/04 00:58:51;;;;;;;10.50;7.90;;;13.60;99.90;;;;;;4974707;28;20473;-73
2024/04/04 01:01:18;;;;;;;12.10;8.85;;;13.50;99.90;;;;;;4975590;28;20227;-74
2024/04/04 01:03:45;;;;;;;20.37;13.57;;;13.60;99.90;;;;;;4975907;28;20298;-73
2024/04/04 01:06:10;;;;;;;5.00;4.07;;;13.60;99.90;;;;;;4974355;28;20478;-74
2024/04/04 01:08:39;;;;;;;2.80;2.60;;;13.60;99.90;;;;;;4975380;28;20824;-74
2024/04/04 01:11:05;;;;;;;13.32;11.90;;;13.60;99.90;;;;;;4975161;28;20471;-73
2024/04/04 01:13:32;;;;;;;2.50;2.30;;;13.60;99.90;;;;;;4975287;28;20219;-73
2024/04/04 01:15:57;;;;;;;5.05;4.65;;;13.50;99.90;;;;;;4974917;28;20318;-74
2024/04/04 01:18:24;;;;;;;19.40;13.00;;;13.60;99.90;;;;;;4979298;28;20777;-74
2024/04/04 01:20:50;;;;;;;33.30;25.48;;;13.60;99.90;;;;;;4984468;28;20477;-74
2024/04/04 01:23:17;;;;;;;6.13;4.60;;;13.40;99.90;;;;;;4994532;28;20219;-74
2024/04/04 01:25:44;;;;;;;8.95;7.43;;;13.40;99.90;;;;;;4994788;28;20480;-74
2024/04/04 01:28:11;;;;;;;3.90;3.57;;;13.30;99.90;;;;;;4985852;28;20318;-74
2024/04/04 01:30:37;;;;;;;8.60;6.20;;;13.40;99.90;;;;;;4974888;28;20470;-73
2024/04/04 01:33:05;;;;;;;3.63;3.30;;;13.30;99.90;;;;;;4974822;28;20470;-73
2024/04/04 01:35:30;;;;;;;3.90;2.90;;;13.20;99.90;;;;;;4974907;28;20471;-73
2024/04/04 01:37:57;;;;;;;3.87;3.47;;;13.20;99.90;;;;;;4973955;28;20234;-74
2024/04/04 01:40:23;;;;;;;3.72;3.35;;;13.20;99.90;;;;;;4974923;28;20461;-73
2024/04/04 01:42:52;;;;;;;2.42;2.22;;;13.20;99.90;;;;;;4975128;28;20611;-73
2024/04/04 01:45:18;;;;;;;4.75;4.28;;;13.10;99.90;;;;;;4974324;28;20581;-74
2024/04/04 01:47:45;;;;;;;10.00;7.20;;;13.10;99.90;;;;;;4992204;28;20229;-74
2024/04/04 01:50:10;;;;;;;5.13;3.92;;;13.10;99.90;;;;;;4993939;28;20478;-74
2024/04/04 01:52:37;;;;;;;2.97;2.77;;;13.10;99.90;;;;;;4994022;28;20341;-73
2024/04/04 01:55:04;;;;;;;2.63;2.20;;;13.10;99.90;;;;;;4993562;28;20478;-73
2024/04/04 01:57:31;;;;;;;5.85;4.15;;;13.10;99.90;;;;;;4977456;28;20289;-74
2024/04/04 01:59:58;;;;;;;3.92;3.53;;;13.10;99.90;;;;;;4973514;28;20223;-73
2024/04/04 02:02:25;;;;;;;6.68;4.55;;;13.10;99.90;;;;;;4974673;28;20231;-73
2024/04/04 02:04:51;;;;;;;4.03;3.53;;;13.20;99.90;;;;;;4974450;28;20234;-73
2024/04/04 02:07:18;;;;;;;16.13;11.47;;;13.20;99.90;;;;;;4973246;28;20223;-73
2024/04/04 02:09:44;;;;;;;6.10;5.50;;;13.30;99.90;;;;;;4974574;28;20475;-73
2024/04/04 02:12:11;;;;;;;79.13;43.20;;;13.40;99.90;;;;;;4974176;28;20557;-73
2024/04/04 02:14:37;;;;;;;19.75;14.48;;;13.50;99.90;;;;;;4973738;28;20482;-73
2024/04/04 02:17:06;;;;;;;7.70;3.70;;;13.50;99.90;;;;;;4982947;28;20216;-74
2024/04/04 02:19:32;;;;;;;15.70;11.55;;;13.50;99.90;;;;;;4974398;28;20870;-73
2024/04/04 02:21:59;;;;;;;14.03;11.67;;;13.60;99.90;;;;;;4973197;28;20227;-74
2024/04/04 02:24:25;;;;;;;4.38;3.97;;;13.60;99.90;;;;;;4971697;28;20474;-74
2024/04/04 02:26:52;;;;;;;2.63;2.43;;;13.60;99.90;;;;;;4974419;28;20553;-74
2024/04/04 02:29:20;;;;;;;15.45;13.43;;;13.70;99.90;;;;;;4972772;28;20467;-74
2024/04/04 02:31:47;;;;;;;4.07;3.65;;;13.70;99.90;;;;;;4982547;28;20227;-74
2024/04/04 02:34:15;;;;;;;4.82;4.43;;;13.70;99.90;;;;;;4992270;28;20223;-73
2024/04/04 02:36:42;;;;;;;8.27;6.40;;;13.70;99.90;;;;;;4993295;28;20227;-74
2024/04/04 02:39:13;;;;;;;13.23;11.20;;;13.70;99.90;;;;;;4993122;28;20540;-73
2024/04/04 02:41:40;;;;;;;21.90;16.45;;;13.80;99.90;;;;;;4993606;28;20301;-73
2024/04/04 02:44:06;;;;;;;5.63;5.13;;;13.80;99.90;;;;;;4993009;28;20222;-73
2024/04/04 02:46:33;;;;;;;3.83;3.33;;;13.80;99.90;;;;;;4993130;28;20484;-73
2024/04/04 02:48:59;;;;;;;3.33;3.03;;;13.80;99.90;;;;;;4995047;28;20860;-74
2024/04/04 02:51:28;;;;;;;4.20;3.90;;;13.80;99.90;;;;;;4992970;28;20470;-74
2024/04/04 02:53:54;;;;;;;6.07;5.47;;;13.70;99.90;;;;;;4993380;28;20498;-73
2024/04/04 02:56:21;;;;;;;15.33;12.97;;;13.70;99.90;;;;;;4992543;28;20265;-73
2024/04/04 02:58:47;;;;;;;108.28;64.05;;;13.70;99.90;;;;;;4992826;28;20474;-73
2024/04/04 03:01:14;;;;;;;34.53;24.77;;;13.70;99.90;;;;;;4992801;28;20223;-74
2024/04/04 03:03:40;;;;;;;4.45;3.67;;;13.60;99.90;;;;;;4993251;28;20465;-73
2024/04/04 03:06:07;;;;;;;4.13;3.77;;;13.60;99.90;;;;;;4992366;28;20300;-73
2024/04/04 03:08:34;;;;;;;17.27;14.23;;;13.60;99.90;;;;;;4991859;28;20473;-74
2024/04/04 03:11:01;;;;;;;6.22;5.63;;;13.60;99.90;;;;;;4992437;28;20590;-74
2024/04/04 03:13:28;;;;;;;6.88;6.28;;;13.60;99.90;;;;;;4992618;28;20227;-74
2024/04/04 03:15:56;;;;;;;3.83;3.27;;;13.60;99.90;;;;;;4992716;28;20602;-73
2024/04/04 03:18:22;;;;;;;4.25;3.85;;;13.60;99.90;;;;;;4990932;28;20540;-74
2024/04/04 03:20:49;;;;;;;4.10;3.65;;;13.60;99.90;;;;;;4992743;28;20429;-74
2024/04/04 03:23:15;;;;;;;6.53;5.83;;;13.60;99.90;;;;;;4992401;28;20227;-74
2024/04/04 03:25:44;;;;;;;4.10;3.80;;;13.60;99.90;;;;;;4992663;28;20978;-73
2024/04/04 03:28:13;;;;;;;4.68;4.28;;;13.60;99.90;;;;;;4992256;28;20501;-74
2024/04/04 03:30:41;;;;;;;4.30;4.00;;;13.60;99.90;;;;;;4992520;28;20226;-73
2024/04/04 03:33:07;;;;;;;2.85;2.45;;;13.60;99.90;;;;;;4992088;28;20234;-74
2024/04/04 03:35:37;;;;;;;7.50;4.20;;;13.60;99.90;;;;;;4992619;28;20235;-74
2024/04/04 03:38:04;;;;;;;7.07;5.10;;;13.60;99.90;;;;;;4992048;28;20474;-74
2024/04/04 03:40:31;;;;;;;5.18;4.68;;;13.60;99.90;;;;;;4992062;28;20481;-74
2024/04/04 03:43:01;;;;;;;3.05;2.75;;;13.60;99.90;;;;;;4992696;28;20234;-74
2024/04/04 03:45:28;;;;;;;3.73;3.23;;;13.60;99.90;;;;;;4991982;28;21506;-74
2024/04/04 03:47:54;;;;;;;3.63;3.40;;;13.60;99.90;;;;;;4992116;28;20480;-74
2024/04/04 03:50:21;;;;;;;3.10;2.85;;;13.60;99.90;;;;;;4991733;28;21051;-74
2024/04/04 03:52:47;;;;;;;9.45;7.82;;;13.60;99.90;;;;;;4992326;28;20226;-74
2024/04/04 03:55:14;;;;;;;5.33;4.60;;;13.60;99.90;;;;;;4991961;28;20233;-74
2024/04/04 03:57:40;;;;;;;48.03;30.75;;;13.70;99.90;;;;;;4992002;28;20481;-74
2024/04/04 04:00:10;;;;;;;27.42;20.45;;;13.70;99.90;;;;;;4991549;28;20233;-74
2024/04/04 04:02:36;;;;;;;14.20;9.10;;;13.70;99.90;;;;;;4992290;28;20234;-74
2024/04/04 04:05:06;;;;;;;9.03;5.70;;;13.70;99.90;;;;;;4992214;28;20795;-74
2024/04/04 04:07:33;;;;;;;4.70;4.27;;;13.60;99.90;;;;;;4991600;28;20555;-73
2024/04/04 04:09:59;;;;;;;16.20;11.77;;;13.60;99.90;;;;;;4992522;28;21007;-73
2024/04/04 04:12:33;;;;;;;5.77;5.20;;;13.70;99.90;;;;;;4991948;28;20478;-74
2024/04/04 04:14:59;;;;;;;5.47;4.97;;;13.60;99.90;;;;;;4991793;28;20477;-74
2024/04/04 04:17:27;;;;;;;3.40;3.10;;;13.60;99.90;;;;;;4991704;28;20447;-74
2024/04/04 04:19:59;;;;;;;3.38;3.08;;;13.60;99.90;;;;;;4992195;28;20469;-74
2024/04/04 04:22:25;;;;;;;10.70;8.40;;;13.60;99.90;;;;;;4991597;28;20273;-74
2024/04/04 04:24:52;;;;;;;11.83;10.30;;;13.60;99.90;;;;;;4992033;28;20676;-74
2024/04/04 04:27:18;;;;;;;28.98;22.25;;;13.60;99.90;;;;;;4991375;28;20482;-74
2024/04/04 04:29:45;;;;;;;14.50;11.23;;;13.60;99.90;;;;;;4991972;28;20253;-73
2024/04/04 04:32:12;;;;;;;10.83;8.87;;;13.60;99.90;;;;;;4990495;28;20477;-75
2024/04/04 04:34:40;;;;;;;10.20;9.18;;;13.60;99.90;;;;;;4991700;28;20477;-73
2024/04/04 04:37:07;;;;;;;12.10;7.97;;;13.60;99.90;;;;;;4991565;28;20234;-74
2024/04/04 04:39:34;;;;;;;4.80;4.30;;;13.60;99.90;;;;;;4991554;28;20461;-74
2024/04/04 04:42:00;;;;;;;7.00;5.33;;;13.60;99.90;;;;;;4991761;28;20469;-73
2024/04/04 04:44:27;;;;;;;12.17;10.27;;;13.60;99.90;;;;;;4991156;28;20466;-74
2024/04/04 04:46:55;;;;;;;8.70;6.53;;;13.60;99.90;;;;;;4991982;28;20972;-74
2024/04/04 04:49:22;;;;;;;6.35;5.75;;;13.60;99.90;;;;;;4991388;28;20493;-74
2024/04/04 04:51:52;;;;;;;6.63;5.03;;;13.60;99.90;;;;;;4991647;28;20227;-74
2024/04/04 04:54:19;;;;;;;5.17;4.67;;;13.60;99.90;;;;;;4994455;28;20483;-73
2024/04/04 04:56:44;;;;;;;3.30;3.00;;;13.70;99.90;;;;;;4995061;28;20470;-73
2024/04/04 04:59:11;;;;;;;18.87;10.70;;;13.70;99.90;;;;;;4995434;28;20469;-73
2024/04/04 05:01:37;;;;;;;9.33;7.80;;;13.70;99.90;;;;;;4995046;28;21232;-74
2024/04/04 05:04:05;;;;;;;4.10;3.73;;;13.70;99.90;;;;;;4995201;28;20465;-72
2024/04/04 05:06:31;;;;;;;5.57;3.73;;;13.70;99.90;;;;;;4994683;28;20577;-73
2024/04/04 05:08:59;;;;;;;6.57;5.23;;;13.70;99.90;;;;;;4995499;28;20541;-73
2024/04/04 05:11:25;;;;;;;7.30;6.60;;;13.70;99.90;;;;;;4994709;28;20820;-74
2024/04/04 05:13:53;;;;;;;4.83;3.27;;;13.70;99.90;;;;;;4995087;28;20462;-73
2024/04/04 05:16:19;;;;;;;3.40;2.73;;;13.80;99.90;;;;;;4994020;28;20811;-76
2024/04/04 05:18:46;;;;;;;3.17;2.65;;;13.80;99.90;;;;;;4995096;28;20469;-75
2024/04/04 05:21:12;;;;;;;2.90;2.37;;;13.80;99.90;;;;;;4995217;28;20225;-73
2024/04/04 05:23:39;;;;;;;3.23;2.93;;;13.80;99.90;;;;;;4994624;28;20457;-75
2024/04/04 05:26:06;;;;;;;3.60;2.73;;;13.90;99.90;;;;;;4994804;28;20466;-74
2024/04/04 05:28:34;;;;;;;3.63;2.47;;;13.90;99.90;;;;;;4994672;28;20474;-73
2024/04/04 05:31:00;;;;;;;3.50;3.00;;;13.90;99.90;;;;;;4994617;28;20472;-73
2024/04/04 05:33:27;;;;;;;2.47;2.27;;;13.90;99.90;;;;;;4994361;28;20828;-73
2024/04/04 05:35:53;;;;;;;2.73;2.40;;;13.90;99.90;;;;;;4994619;28;20461;-75
2024/04/04 05:38:21;;;;;;;4.37;3.53;;;13.90;99.90;;;;;;4993257;28;21028;-73
2024/04/04 05:40:46;;;;;;;5.43;3.93;;;13.90;99.90;;;;;;4994499;28;20545;-74
2024/04/04 05:43:15;;;;;;;3.80;3.40;;;13.90;99.90;;;;;;4994673;28;20560;-73
2024/04/04 05:45:41;;;;;;;3.97;2.33;;;13.90;99.90;;;;;;4993977;28;20786;-74
2024/04/04 05:48:08;;;;;;;13.97;12.23;;;13.80;99.90;;;;;;4994479;28;20480;-74
2024/04/04 05:50:34;;;;;;;3.37;2.97;;;13.90;99.90;;;;;;4993958;28;20466;-74
2024/04/04 05:53:01;;;;;;;8.17;5.37;;;13.80;99.90;;;;;;4994349;28;20547;-74
2024/04/04 05:55:27;;;;;;;2.83;2.63;;;13.80;99.90;;;;;;4993856;28;20585;-74
2024/04/04 05:57:54;;;;;;;5.40;3.27;;;13.80;99.90;;;;;;4994339;28;20470;-74
2024/04/04 06:00:21;;;;;;;10.73;6.30;;;13.80;99.90;;;;;;4993531;28;20474;-74
2024/04/04 06:02:49;;;;;;;5.53;3.80;;;13.80;99.90;;;;;;4994291;28;20465;-73
2024/04/04 06:05:15;;;;;;;15.33;10.23;;;13.80;99.90;;;;;;4993926;28;20821;-74
2024/04/04 06:07:42;;;;;;;5.57;5.07;;;13.80;99.90;;;;;;4993576;28;20462;-73
2024/04/04 06:10:08;;;;;;;7.63;3.50;;;13.90;99.90;;;;;;4994309;28;20477;-73
2024/04/04 06:12:35;;;;;;;22.53;14.90;;;13.90;99.90;;;;;;4993558;28;20848;-74
2024/04/04 06:15:01;;;;;;;5.70;4.90;;;14.00;99.90;;;;;;4994010;28;20980;-74
2024/04/04 06:17:29;;;;;;;20.00;11.80;;;14.10;99.90;;;;;;4993503;28;20474;-74
2024/04/04 06:19:55;;;;;;;4.93;2.20;;;14.10;99.90;;;;;;4993881;28;20458;-74
2024/04/04 06:22:22;;;;;;;3.43;3.13;;;14.10;99.90;;;;;;4993378;28;20985;-74
2024/04/04 06:24:47;;;;;;;13.23;9.43;;;14.10;99.90;;;;;;4993982;28;20462;-73
2024/04/04 06:27:14;;;;;;;6.83;6.13;;;14.20;99.90;;;;;;4993607;28;20472;-72
2024/04/04 06:29:41;;;;;;;5.07;3.10;;;14.20;99.90;;;;;;4993176;28;20477;-73
2024/04/04 06:32:08;;;;;;;13.93;9.57;;;14.30;99.90;;;;;;4993638;28;20480;-73
2024/04/04 06:34:36;;;;;;;4.80;4.30;;;14.30;99.90;;;;;;4992828;28;20477;-73
2024/04/04 06:37:02;;;;;;;17.43;12.43;;;14.30;99.90;;;;;;4993300;28;20860;-73
2024/04/04 06:39:28;;;;;;;11.83;6.20;;;14.40;99.90;;;;;;4993162;28;20481;-73
2024/04/04 06:41:55;;;;;;;11.60;7.37;;;14.40;99.90;;;;;;4993596;28;20803;-74
2024/04/04 06:44:21;;;;;;;8.20;6.33;;;14.50;99.90;;;;;;4992889;28;20469;-74
2024/04/04 06:46:48;;;;;;;9.40;7.13;;;14.50;99.90;;;;;;4993066;28;20589;-74
2024/04/04 06:49:15;;;;;;;13.63;10.97;;;14.50;99.90;;;;;;4993397;28;20493;-74
2024/04/04 06:51:43;;;;;;;8.30;5.97;;;14.60;99.90;;;;;;4992675;28;20497;-74
2024/04/04 06:54:09;;;;;;;4.33;3.93;;;14.60;99.90;;;;;;4993186;28;20474;-74
2024/04/04 06:56:36;;;;;;;24.27;17.13;;;14.60;99.90;;;;;;4992743;28;20473;-74
2024/04/04 06:59:02;;;;;;;7.93;6.17;;;14.60;99.90;;;;;;4992914;28;20826;-74
2024/04/04 07:01:31;;;;;;;6.47;5.63;;;14.60;99.90;;;;;;4992619;28;20472;-74
2024/04/04 07:03:59;;;;;;;8.33;5.50;;;14.70;99.90;;;;;;4992960;28;20466;-73
2024/04/04 07:06:26;;;;;;;9.00;6.07;;;14.80;99.90;;;;;;4992177;28;20484;-73
2024/04/04 07:08:54;;;;;;;12.20;10.00;;;14.80;99.90;;;;;;4992890;28;20472;-74
2024/04/04 07:11:21;;;;;;;5.50;4.80;;;14.80;99.90;;;;;;4993201;28;20536;-75
2024/04/04 07:13:47;;;;;;;10.40;7.80;;;14.90;99.90;;;;;;4992368;28;20812;-74
2024/04/04 07:16:14;;;;;;;12.93;10.07;;;14.90;99.90;;;;;;4991136;28;20964;-74
2024/04/04 07:18:40;;;;;;;9.50;8.20;;;14.90;99.90;;;;;;4992451;28;20568;-74
2024/04/04 07:21:07;;;;;;;7.10;5.80;;;15.00;99.90;;;;;;4992738;28;20885;-73
2024/04/04 07:23:33;;;;;;;7.30;5.40;;;15.00;99.90;;;;;;4992303;28;20468;-75
2024/04/04 07:26:05;;;;;;;6.13;5.40;;;15.10;99.90;;;;;;4992865;28;20972;-74
2024/04/04 07:28:30;;;;;;;13.63;10.63;;;15.10;99.90;;;;;;4992047;28;20477;-74
2024/04/04 07:30:57;;;;;;;8.60;7.10;;;15.20;99.90;;;;;;4992576;28;20462;-74
2024/04/04 07:33:23;;;;;;;7.07;5.77;;;15.20;99.90;;;;;;4992423;28;21097;-75
2024/04/04 07:35:50;;;;;;;5.43;3.93;;;15.20;99.90;;;;;;4991931;28;20780;-74
2024/04/04 07:38:16;;;;;;;8.10;6.73;;;15.30;99.90;;;;;;4992435;28;20783;-74
2024/04/04 07:40:47;;;;;;;2.90;2.57;;;15.30;99.90;;;;;;4992111;28;20536;-74
2024/04/04 07:43:14;;;;;;;14.57;8.90;;;15.30;99.90;;;;;;4992531;28;20956;-73
2024/04/04 07:45:43;;;;;;;16.73;12.83;;;15.40;99.90;;;;;;4991793;28;21046;-73
2024/04/04 07:48:13;;;;;;;6.33;4.87;;;15.50;99.90;;;;;;4992635;28;20494;-73
2024/04/04 07:50:41;;;;;;;8.23;5.47;;;15.50;99.90;;;;;;4991914;28;20470;-74
2024/04/04 07:53:10;;;;;;;11.50;6.63;;;15.60;99.90;;;;;;4992551;28;20462;-74
2024/04/04 07:55:38;;;;;;;7.27;5.37;;;15.60;99.90;;;;;;4991886;28;20478;-74
2024/04/04 07:58:04;;;;;;;13.43;9.73;;;15.70;99.90;;;;;;4992319;28;20466;-74
2024/04/04 08:00:33;;;;;;;26.10;18.17;;;15.80;99.90;;;;;;4991966;28;20470;-74
2024/04/04 08:02:59;;;;;;;12.60;10.83;;;15.90;99.90;;;;;;4992420;28;20466;-74
2024/04/04 08:05:28;;;;;;;5.70;4.40;;;16.00;99.90;;;;;;4991935;28;20474;-74
2024/04/04 08:07:54;;;;;;;6.20;5.60;;;16.10;99.90;;;;;;4991864;28;20550;-75
2024/04/04 08:10:22;;;;;;;2.90;1.83;;;16.20;99.90;;;;;;4992334;28;20493;-73
2024/04/04 08:12:48;;;;;;;6.10;3.00;;;16.30;99.90;;;;;;4991843;28;20528;-74
2024/04/04 08:15:15;;;;;;;15.93;11.97;;;16.30;99.90;;;;;;4992194;28;20461;-74
2024/04/04 08:17:42;;;;;;;5.43;4.60;;;16.40;99.90;;;;;;4991572;28;20496;-74
2024/04/04 08:20:14;;;;;;;5.20;3.47;;;16.40;99.90;;;;;;4992145;28;20488;-73
2024/04/04 08:22:40;;;;;;;6.13;4.13;;;16.40;99.90;;;;;;4991829;28;20955;-73
2024/04/04 08:25:07;;;;;;;4.43;3.80;;;16.40;99.90;;;;;;4992185;28;20457;-74
2024/04/04 08:27:33;;;;;;;11.20;5.77;;;16.40;99.90;;;;;;4992243;28;20972;-74
2024/04/04 08:30:01;;;;;;;2.60;1.70;;;16.40;99.90;;;;;;4995945;28;20469;-73
2024/04/04 08:32:27;;;;;;;2.57;2.37;;;16.40;99.90;;;;;;4995817;28;20479;-73
2024/04/04 08:34:57;;;;;;;2.80;2.30;;;16.50;99.90;;;;;;4995425;28;20481;-73
2024/04/04 08:37:23;;;;;;;5.40;4.00;;;16.50;99.90;;;;;;4995593;28;20475;-73
2024/04/04 08:39:50;;;;;;;9.90;4.20;;;16.50;99.90;;;;;;4995289;28;20971;-73
2024/04/04 08:42:17;;;;;;;30.03;20.63;;;16.50;99.90;;;;;;4995624;28;20473;-73
2024/04/04 08:44:45;;;;;;;20.57;13.43;;;16.50;99.90;;;;;;4994950;28;20466;-73
2024/04/04 08:47:14;;;;;;;12.53;4.80;;;16.60;99.90;;;;;;4995463;28;20983;-73
2024/04/04 08:49:41;;;;;;;17.80;12.97;;;16.70;99.90;;;;;;4994829;28;20582;-73
2024/04/04 08:52:09;;;;;;;14.97;10.40;;;16.70;99.90;;;;;;4995469;28;20470;-73
2024/04/04 08:54:36;;;;;;;5.90;4.83;;;16.80;99.90;;;;;;4995022;28;20557;-73
2024/04/04 08:57:03;;;;;;;4.50;2.20;;;16.80;99.90;;;;;;4995347;28;20848;-73
2024/04/04 08:59:30;;;;;;;9.93;4.57;;;16.90;99.90;;;;;;4995326;28;20752;-73
2024/04/04 09:01:56;;;;;;;11.50;6.00;;;16.90;99.90;;;;;;4994580;28;20477;-73
2024/04/04 09:04:26;;;;;;;3.40;2.83;;;17.00;99.90;;;;;;4995240;28;20466;-73
2024/04/04 09:06:52;;;;;;;6.23;3.70;;;17.00;99.90;;;;;;4994552;28;20887;-74
2024/04/04 09:09:21;;;;;;;4.03;2.20;;;17.10;99.90;;;;;;4995115;28;20508;-73
2024/04/04 09:11:47;;;;;;;8.90;6.13;;;17.20;99.90;;;;;;4994686;28;20484;-73
2024/04/04 09:14:15;;;;;;;4.87;2.87;;;17.20;99.90;;;;;;4994880;28;20966;-74
2024/04/04 09:16:41;;;;;;;2.60;1.83;;;17.30;99.90;;;;;;4994299;28;20863;-73
2024/04/04 09:19:11;;;;;;;6.20;4.87;;;17.30;99.90;;;;;;4994949;28;20461;-74
2024/04/04 09:21:38;;;;;;;3.13;1.40;;;17.30;99.90;;;;;;4994749;28;20814;-74
2024/04/04 09:24:08;;;;;;;20.07;11.03;;;17.40;99.90;;;;;;4995054;28;20812;-74
2024/04/04 09:26:36;;;;;;;4.30;3.40;;;17.50;99.90;;;;;;4984263;28;20497;-75
2024/04/04 09:29:04;;;;;;;1.30;1.10;;;17.60;99.90;;;;;;4993469;28;20476;-73
2024/04/04 09:31:34;;;;;;;4.30;3.07;;;17.60;99.90;;;;;;4994668;28;20474;-74
2024/04/04 09:34:02;;;;;;;3.77;2.67;;;17.70;99.90;;;;;;4994244;28;20465;-74
2024/04/04 09:36:30;;;;;;;6.70;4.30;;;17.70;99.90;;;;;;4994548;28;20485;-74
2024/04/04 09:38:58;;;;;;;6.23;3.73;;;17.80;99.90;;;;;;4993820;28;20524;-74
2024/04/04 09:41:24;;;;;;;4.57;2.63;;;17.70;99.90;;;;;;4994843;28;20473;-73
2024/04/04 09:43:56;;;;;;;3.93;3.53;;;17.80;99.90;;;;;;4993578;28;20472;-73
2024/04/04 09:46:23;;;;;;;1.90;1.73;;;17.80;99.90;;;;;;4994540;28;20843;-74
2024/04/04 09:48:51;;;;;;;5.47;3.77;;;17.80;99.90;;;;;;4994006;28;20473;-74
2024/04/04 09:51:17;;;;;;;6.90;5.30;;;17.80;99.90;;;;;;4994457;28;20477;-73
2024/04/04 09:53:45;;;;;;;5.63;1.67;;;17.90;99.90;;;;;;4994052;28;20493;-73
2024/04/04 09:56:12;;;;;;;4.03;1.37;;;17.90;99.90;;;;;;4994157;28;20478;-74
2024/04/04 09:58:41;;;;;;;7.83;4.13;;;17.80;99.90;;;;;;4993671;28;20839;-74
2024/04/04 10:01:19;;;;;;;2.30;1.57;;;17.80;99.90;;;;;;4993754;28;20462;-74
2024/04/04 10:03:58;;;;;;;3.63;1.60;;;17.80;99.90;;;;;;4993799;28;20473;-73
2024/04/04 10:06:43;;;;;;;6.17;3.10;;;17.70;99.90;;;;;;4994119;28;20488;-73
2024/04/04 10:09:15;;;;;;;3.17;1.20;;;17.70;99.90;;;;;;4993862;28;20464;-72
2024/04/04 10:11:41;;;;;;;3.70;2.33;;;17.50;99.90;;;;;;4994034;28;20486;-72
2024/04/04 10:14:13;;;;;;;1.77;1.20;;;17.40;99.90;;;;;;4993413;28;20473;-73
2024/04/04 10:16:44;;;;;;;2.17;1.80;;;17.10;99.90;;;;;;4993883;28;20466;-72
2024/04/04 10:19:13;;;;;;;4.10;1.90;;;17.10;99.90;;;;;;4993643;28;20469;-73
2024/04/04 10:21:39;;;;;;;1.80;1.40;;;17.00;99.90;;;;;;4994107;28;20469;-73
2024/04/04 10:24:07;;;;;;;3.00;1.00;;;17.00;99.90;;;;;;4993378;28;21000;-74
2024/04/04 10:26:33;;;;;;;4.10;3.20;;;16.90;99.90;;;;;;4993986;28;20572;-74
2024/04/04 10:29:02;;;;;;;14.13;7.93;;;16.90;99.90;;;;;;4993024;28;20480;-73
2024/04/04 10:31:28;;;;;;;3.30;2.23;;;16.90;99.90;;;;;;4993960;28;20541;-73
2024/04/04 10:34:04;;;;;;;1.53;1.20;;;16.80;99.90;;;;;;4993504;28;20541;-73
2024/04/04 10:36:43;;;;;;;9.20;5.47;;;16.80;99.90;;;;;;4993243;28;20465;-73
2024/04/04 10:39:12;;;;;;;10.60;7.40;;;16.80;99.90;;;;;;4992992;28;20468;-74
2024/04/04 10:41:39;;;;;;;3.57;1.57;;;16.80;99.90;;;;;;4993480;28;20524;-74
2024/04/04 10:44:12;;;;;;;4.97;2.20;;;16.90;99.90;;;;;;4992927;28;21015;-74
2024/04/04 10:46:45;;;;;;;4.80;2.60;;;16.90;99.90;;;;;;4993164;28;20931;-74
2024/04/04 10:49:14;;;;;;;4.73;2.10;;;16.90;99.90;;;;;;4992764;28;21030;-74
2024/04/04 10:51:49;;;;;;;5.40;3.40;;;16.90;99.90;;;;;;4992957;28;20466;-74
2024/04/04 10:54:17;;;;;;;4.37;1.40;;;16.90;99.90;;;;;;4993006;28;20465;-74
2024/04/04 10:56:45;;;;;;;2.20;1.77;;;16.80;99.90;;;;;;4992983;28;20974;-73
2024/04/04 10:59:15;;;;;;;2.83;1.60;;;16.80;99.90;;;;;;4992746;28;20446;-73
2024/04/04 11:01:41;;;;;;;3.80;1.77;;;16.80;99.90;;;;;;4993068;28;20469;-74
2024/04/04 11:04:11;;;;;;;3.93;2.00;;;16.70;99.90;;;;;;4992631;28;20846;-73
2024/04/04 11:06:40;;;;;;;4.90;2.20;;;16.60;99.90;;;;;;4992725;28;20477;-73
2024/04/04 11:09:15;;;;;;;4.87;2.30;;;16.50;99.90;;;;;;4992409;28;20618;-74
2024/04/04 11:11:41;;;;;;;2.57;1.67;;;16.50;99.90;;;;;;4992861;28;20485;-73
2024/04/04 11:14:09;;;;;;;4.90;2.77;;;16.50;99.90;;;;;;4992185;28;20479;-74
2024/04/04 11:16:38;;;;;;;5.33;2.80;;;16.40;99.90;;;;;;4992809;28;20470;-74
2024/04/04 11:19:06;;;;;;;6.20;4.27;;;16.20;99.90;;;;;;4992420;28;20972;-74
2024/04/04 11:21:32;;;;;;;7.43;3.70;;;16.10;99.90;;;;;;4992772;28;20762;-74
2024/04/04 11:24:01;;;;;;;3.07;2.37;;;16.00;99.90;;;;;;4992152;28;20537;-74
2024/04/04 11:26:27;;;;;;;2.20;1.57;;;16.00;99.90;;;;;;4992450;28;20478;-74
2024/04/04 11:28:54;;;;;;;3.87;2.33;;;15.90;99.90;;;;;;4992644;28;20464;-74
2024/04/04 11:31:20;;;;;;;3.40;1.97;;;15.80;99.90;;;;;;4992354;28;20809;-73
2024/04/04 11:33:47;;;;;;;4.70;1.70;;;15.80;99.90;;;;;;4992550;28;20466;-73
2024/04/04 11:36:13;;;;;;;3.93;2.27;;;15.70;99.90;;;;;;4991987;28;20481;-73
2024/04/04 11:38:40;;;;;;;7.13;2.17;;;15.60;99.90;;;;;;4992349;28;20474;-73
2024/04/04 11:41:08;;;;;;;10.40;2.17;;;15.50;99.90;;;;;;4991857;28;20489;-74
2024/04/04 11:43:35;;;;;;;5.17;3.17;;;15.40;99.90;;;;;;4992561;28;20990;-74
2024/04/04 11:46:01;;;;;;;4.20;2.40;;;15.40;99.90;;;;;;4992622;28;20509;-74
2024/04/04 11:48:30;;;;;;;2.10;1.60;;;15.30;99.90;;;;;;4992963;28;20564;-74
2024/04/04 11:50:56;;;;;;;6.30;2.23;;;15.40;99.90;;;;;;4993097;28;20474;-74
2024/04/04 11:53:23;;;;;;;3.17;2.17;;;15.40;99.90;;;;;;4992755;28;20462;-74
2024/04/04 11:55:49;;;;;;;5.00;2.10;;;15.40;99.90;;;;;;4993023;28;20484;-73
2024/04/04 11:58:17;;;;;;;2.83;1.90;;;15.50;99.90;;;;;;4992294;28;20462;-75
2024/04/04 12:00:43;;;;;;;4.80;2.13;;;15.50;99.90;;;;;;4993020;28;20469;-74
2024/04/04 12:03:10;;;;;;;3.00;2.13;;;15.50;99.90;;;;;;4992233;28;20476;-75
2024/04/04 12:05:37;;;;;;;3.97;2.27;;;15.50;99.90;;;;;;4992814;28;20485;-74
2024/04/04 12:08:07;;;;;;;5.20;2.23;;;15.60;99.90;;;;;;4992140;28;20470;-74
2024/04/04 12:10:33;;;;;;;2.30;2.10;;;15.60;99.90;;;;;;4992839;28;20478;-74
2024/04/04 12:13:00;;;;;;;5.00;2.77;;;15.60;99.90;;;;;;4992491;28;21031;-74
2024/04/04 12:15:29;;;;;;;5.43;2.40;;;15.60;99.90;;;;;;4992841;28;20465;-75
2024/04/04 12:20:37;;;;;;;7.37;4.63;;;15.50;99.90;;;;;;4992340;28;20952;-74
2024/04/04 12:23:04;;;;;;;6.20;4.90;;;15.50;99.90;;;;;;4992110;28;20465;-74
2024/04/04 12:25:32;;;;;;;9.03;3.23;;;15.50;99.90;;;;;;4992748;28;20547;-73
2024/04/04 12:27:57;;;;;;;6.10;2.50;;;15.50;99.90;;;;;;4992014;28;20805;-74
2024/04/04 12:30:24;;;;;;;5.93;2.30;;;15.50;99.90;;;;;;4992425;28;20462;-74
2024/04/04 12:32:52;;;;;;;4.53;2.50;;;15.50;99.90;;;;;;4991870;28;20462;-74
2024/04/04 12:35:19;;;;;;;3.07;2.50;;;15.50;99.90;;;;;;4992746;28;20481;-74
2024/04/04 12:37:46;;;;;;;3.93;2.23;;;15.50;99.90;;;;;;4991897;28;20470;-74
2024/04/04 12:40:13;;;;;;;2.33;2.13;;;15.50;99.90;;;;;;4992480;28;20785;-74
2024/04/04 12:42:38;;;;;;;8.63;2.93;;;15.50;99.90;;;;;;4992809;28;20474;-75
2024/04/04 12:45:06;;;;;;;3.83;2.67;;;15.50;99.90;;;;;;4991713;28;20813;-75
2024/04/04 12:47:32;;;;;;;3.80;2.57;;;15.50;99.90;;;;;;4992258;28;20496;-73